Time;durP1;ratioP1;P1;durP2;ratioP2;P2;SDS_P1;SDS_P2;PMS_P1;PMS_P2;Temp;Humidity;BMP_temperature;BMP_pressure;BME280_temperature;BME280_humidity;BME280_pressure;Samples;Min_cycle;Max_cycle;Signal;HPM_P1;HPM_P2
2021/12/27 00:00:03;;;;;;;5.45;3.00;;;3.10;90.50;;;;;;5033540;28;20122;-69
2021/12/27 00:02:37;;;;;;;10.23;5.72;;;3.10;90.50;;;;;;5040076;28;20139;-70
2021/12/27 00:05:04;;;;;;;9.48;4.00;;;3.10;90.60;;;;;;5044142;28;20174;-69
2021/12/27 00:07:30;;;;;;;6.57;4.10;;;3.20;90.60;;;;;;5040689;28;20044;-69
2021/12/27 00:09:55;;;;;;;6.75;3.92;;;3.20;90.70;;;;;;5053175;28;20025;-69
2021/12/27 00:12:21;;;;;;;6.65;3.80;;;3.20;90.70;;;;;;5032891;28;20044;-69
2021/12/27 00:14:47;;;;;;;11.40;3.97;;;3.20;90.70;;;;;;5033469;28;20040;-69
2021/12/27 00:17:12;;;;;;;6.90;3.28;;;3.10;90.80;;;;;;5046161;28;20120;-69
2021/12/27 00:19:38;;;;;;;6.35;3.83;;;3.20;90.80;;;;;;5032748;28;20043;-69
2021/12/27 00:22:04;;;;;;;6.35;4.07;;;3.20;90.80;;;;;;5046150;28;20488;-70
2021/12/27 00:24:29;;;;;;;10.88;5.13;;;3.20;90.90;;;;;;5033419;28;20556;-69
2021/12/27 00:26:55;;;;;;;8.40;3.58;;;3.20;90.90;;;;;;5052284;28;20361;-69
2021/12/27 00:29:21;;;;;;;6.75;2.88;;;3.20;90.90;;;;;;5038437;28;20082;-69
2021/12/27 00:31:47;;;;;;;9.57;4.65;;;3.20;91.00;;;;;;5032947;28;20064;-69
2021/12/27 00:34:13;;;;;;;8.93;5.40;;;3.20;91.00;;;;;;5046863;28;20056;-69
2021/12/27 00:36:39;;;;;;;4.75;2.75;;;3.20;90.80;;;;;;5044563;28;20108;-69
2021/12/27 00:39:05;;;;;;;8.30;3.22;;;3.20;90.80;;;;;;5047912;28;20036;-69
2021/12/27 00:41:31;;;;;;;7.68;3.50;;;3.20;90.80;;;;;;5043488;28;20037;-69
2021/12/27 00:43:56;;;;;;;15.88;6.50;;;3.20;90.80;;;;;;5033122;28;20072;-69
2021/12/27 00:46:22;;;;;;;10.85;3.00;;;3.30;90.70;;;;;;5041203;28;20124;-69
2021/12/27 00:48:48;;;;;;;7.90;4.80;;;3.20;90.70;;;;;;5051984;28;20124;-69
2021/12/27 00:51:13;;;;;;;5.22;3.13;;;3.20;90.80;;;;;;5052564;28;20043;-69
2021/12/27 00:53:39;;;;;;;6.88;3.53;;;3.30;90.80;;;;;;5051804;28;20465;-69
2021/12/27 00:56:05;;;;;;;10.65;3.58;;;3.30;90.90;;;;;;5048364;28;20359;-69
2021/12/27 00:58:31;;;;;;;10.70;5.80;;;3.30;90.90;;;;;;5032585;28;20449;-69
2021/12/27 01:00:56;;;;;;;12.07;5.80;;;3.30;90.80;;;;;;5036848;28;20116;-69
2021/12/27 01:03:22;;;;;;;11.45;5.30;;;3.30;90.80;;;;;;5040787;28;20038;-69
2021/12/27 01:05:48;;;;;;;12.88;5.90;;;3.30;90.70;;;;;;5050490;28;20043;-69
2021/12/27 01:08:14;;;;;;;10.27;4.43;;;3.20;90.60;;;;;;5051787;28;20032;-69
2021/12/27 01:10:59;;;;;;;8.57;3.78;;;3.20;90.40;;;;;;5039071;28;20035;-69
2021/12/27 01:13:45;;;;;;;15.43;6.88;;;3.20;90.10;;;;;;5038912;28;20029;-69
2021/12/27 01:16:13;;;;;;;11.00;5.30;;;3.20;90.10;;;;;;5051468;28;20080;-69
2021/12/27 01:18:43;;;;;;;7.43;3.88;;;3.10;90.00;;;;;;5046921;28;20026;-69
2021/12/27 01:21:09;;;;;;;4.43;2.97;;;3.10;90.10;;;;;;5044980;28;20051;-69
2021/12/27 01:23:35;;;;;;;9.57;5.47;;;3.10;90.30;;;;;;5038180;28;20498;-69
2021/12/27 01:26:02;;;;;;;8.40;4.13;;;3.10;90.40;;;;;;5038845;28;20033;-69
2021/12/27 01:28:27;;;;;;;16.35;5.38;;;3.10;90.50;;;;;;5032323;28;20488;-69
2021/12/27 01:30:53;;;;;;;10.88;5.03;;;3.10;90.50;;;;;;5045098;28;20029;-69
2021/12/27 01:33:20;;;;;;;13.13;7.13;;;3.10;90.30;;;;;;5052311;28;20485;-69
2021/12/27 01:35:46;;;;;;;9.80;4.57;;;3.10;90.30;;;;;;5037376;28;20033;-70
2021/12/27 01:38:13;;;;;;;12.65;6.63;;;3.10;90.20;;;;;;5052204;28;20037;-69
2021/12/27 01:40:41;;;;;;;8.45;5.13;;;3.10;90.10;;;;;;5050254;28;20510;-70
2021/12/27 01:43:14;;;;;;;13.88;7.47;;;3.10;90.20;;;;;;5031432;28;20879;-70
2021/12/27 01:45:42;;;;;;;5.60;3.65;;;3.10;90.10;;;;;;5050694;28;20048;-69
2021/12/27 01:48:09;;;;;;;13.27;6.57;;;3.00;90.20;;;;;;5048365;28;20068;-70
2021/12/27 01:50:45;;;;;;;9.25;4.05;;;3.00;90.20;;;;;;5036282;28;20388;-70
2021/12/27 01:53:12;;;;;;;13.50;6.75;;;3.00;90.30;;;;;;5047146;28;20037;-70
2021/12/27 01:55:39;;;;;;;14.15;5.32;;;3.10;90.30;;;;;;5031865;28;20543;-70
2021/12/27 01:58:05;;;;;;;5.07;2.80;;;3.10;90.30;;;;;;5047828;28;20026;-70
2021/12/27 02:00:32;;;;;;;4.85;2.60;;;3.00;90.50;;;;;;5043564;28;20036;-70
2021/12/27 02:02:58;;;;;;;11.98;5.93;;;3.10;90.70;;;;;;5055246;28;20442;-70
2021/12/27 02:05:24;;;;;;;8.20;4.50;;;3.00;90.80;;;;;;5055028;28;20033;-70
2021/12/27 02:07:50;;;;;;;3.40;2.55;;;3.00;90.80;;;;;;5040146;28;20494;-70
2021/12/27 02:10:15;;;;;;;15.35;7.15;;;3.00;90.80;;;;;;5044546;28;20484;-70
2021/12/27 02:12:41;;;;;;;9.18;3.97;;;3.00;90.80;;;;;;5054701;28;20078;-70
2021/12/27 02:15:09;;;;;;;3.90;2.53;;;3.10;91.00;;;;;;5046314;28;20032;-69
2021/12/27 02:17:41;;;;;;;15.15;7.50;;;3.00;90.90;;;;;;5051596;28;20480;-69
2021/12/27 02:20:41;;;;;;;4.28;2.90;;;3.10;90.90;;;;;;5052199;28;20040;-69
2021/12/27 02:23:16;;;;;;;18.67;8.52;;;3.10;90.90;;;;;;5047517;28;20041;-69
2021/12/27 02:25:46;;;;;;;14.95;6.07;;;3.10;90.80;;;;;;5046081;28;20041;-69
2021/12/27 02:28:13;;;;;;;15.25;6.13;;;3.10;90.80;;;;;;5048227;28;20037;-69
2021/12/27 02:30:41;;;;;;;12.00;6.07;;;3.10;90.80;;;;;;5035261;28;20469;-70
2021/12/27 02:33:08;;;;;;;8.73;3.95;;;3.20;90.80;;;;;;5034595;28;20029;-69
2021/12/27 02:35:43;;;;;;;11.43;4.82;;;3.10;90.80;;;;;;5035314;28;20358;-69
2021/12/27 02:38:13;;;;;;;20.05;8.07;;;3.20;90.80;;;;;;5034981;28;20087;-69
2021/12/27 02:40:41;;;;;;;7.78;5.10;;;3.20;90.80;;;;;;5034459;28;20029;-69
2021/12/27 02:43:18;;;;;;;14.07;6.70;;;3.20;90.80;;;;;;5041478;28;20032;-70
2021/12/27 02:45:52;;;;;;;4.43;2.95;;;3.20;90.70;;;;;;5041437;28;20049;-69
2021/12/27 02:48:21;;;;;;;14.98;6.95;;;3.20;90.70;;;;;;5045284;28;20037;-70
2021/12/27 02:50:48;;;;;;;14.52;6.93;;;3.20;90.70;;;;;;5043242;28;20137;-70
2021/12/27 02:53:14;;;;;;;8.18;4.20;;;3.20;90.60;;;;;;5050872;28;20036;-70
2021/12/27 02:55:41;;;;;;;8.23;3.50;;;3.10;90.50;;;;;;5047544;28;20052;-70
2021/12/27 02:58:07;;;;;;;11.38;5.55;;;3.10;90.60;;;;;;5054741;28;20032;-69
2021/12/27 03:00:38;;;;;;;14.32;6.50;;;3.20;90.50;;;;;;5050507;28;20079;-70
2021/12/27 03:03:04;;;;;;;9.40;5.20;;;3.10;90.50;;;;;;5042363;28;20026;-69
2021/12/27 03:05:30;;;;;;;13.15;6.50;;;3.20;90.50;;;;;;5047581;28;20044;-69
2021/12/27 03:07:57;;;;;;;17.40;7.75;;;3.10;90.30;;;;;;5051934;28;20032;-70
2021/12/27 03:10:30;;;;;;;8.77;3.75;;;3.10;90.20;;;;;;5051464;28;20072;-69
2021/12/27 03:12:57;;;;;;;18.15;6.90;;;3.10;90.30;;;;;;5048433;28;20036;-70
2021/12/27 03:15:24;;;;;;;12.73;6.47;;;3.10;90.30;;;;;;5048973;28;20033;-70
2021/12/27 03:17:52;;;;;;;8.93;4.55;;;3.10;90.10;;;;;;5049077;28;20025;-70
2021/12/27 03:20:20;;;;;;;16.73;8.57;;;3.10;90.10;;;;;;5048993;28;20094;-70
2021/12/27 03:22:46;;;;;;;16.05;8.10;;;3.00;90.00;;;;;;5040085;28;20099;-70
2021/12/27 03:25:15;;;;;;;12.75;5.97;;;3.00;89.90;;;;;;5053465;28;20064;-70
2021/12/27 03:27:41;;;;;;;16.17;6.38;;;3.00;89.80;;;;;;5042646;28;20082;-70
2021/12/27 03:30:10;;;;;;;16.90;8.52;;;3.00;90.00;;;;;;5048354;28;20439;-69
2021/12/27 03:32:36;;;;;;;13.05;7.03;;;3.00;89.80;;;;;;5053714;28;20029;-70
2021/12/27 03:35:13;;;;;;;17.02;8.38;;;3.00;89.50;;;;;;5054309;28;20037;-70
2021/12/27 03:37:41;;;;;;;4.82;3.05;;;3.00;89.60;;;;;;5053264;28;20075;-70
2021/12/27 03:40:09;;;;;;;7.93;3.58;;;3.00;90.00;;;;;;5053846;28;20029;-70
2021/12/27 03:42:35;;;;;;;4.75;3.20;;;3.00;90.00;;;;;;5056304;28;20060;-70
2021/12/27 03:45:01;;;;;;;14.98;8.07;;;3.00;90.20;;;;;;5048275;28;20503;-70
2021/12/27 03:47:27;;;;;;;20.20;8.57;;;3.00;90.20;;;;;;5050563;28;20068;-69
2021/12/27 03:49:52;;;;;;;13.25;6.93;;;3.00;90.10;;;;;;5052804;28;20071;-69
2021/12/27 03:52:18;;;;;;;11.60;6.60;;;3.00;90.20;;;;;;5052469;28;20116;-69
2021/12/27 03:54:44;;;;;;;12.32;6.15;;;3.00;90.20;;;;;;5034002;28;20045;-69
2021/12/27 03:57:09;;;;;;;14.70;7.57;;;3.00;90.20;;;;;;5033175;28;20063;-69
2021/12/27 04:02:01;;;;;;;13.02;7.18;;;3.00;90.30;;;;;;5053268;28;20118;-69
2021/12/27 04:04:27;;;;;;;13.45;6.65;;;3.00;90.00;;;;;;5045613;28;20049;-69
2021/12/27 04:06:53;;;;;;;13.18;7.68;;;3.00;90.20;;;;;;5047339;28;20033;-69
2021/12/27 04:09:19;;;;;;;12.35;7.22;;;3.00;90.10;;;;;;5053271;28;20550;-69
2021/12/27 04:11:45;;;;;;;17.83;6.85;;;3.00;90.10;;;;;;5039209;28;20040;-69
2021/12/27 04:14:10;;;;;;;20.80;8.98;;;3.00;90.00;;;;;;5045359;28;20073;-69
2021/12/27 04:16:36;;;;;;;19.13;9.52;;;3.10;90.00;;;;;;5046188;28;20035;-69
2021/12/27 04:19:02;;;;;;;10.07;4.75;;;3.00;90.00;;;;;;5032494;28;20045;-69
2021/12/27 04:21:28;;;;;;;13.27;6.38;;;3.00;90.10;;;;;;5045474;28;20522;-69
2021/12/27 04:23:54;;;;;;;6.00;4.18;;;3.00;90.00;;;;;;5033266;28;20041;-70
2021/12/27 04:26:20;;;;;;;26.45;9.20;;;3.10;90.00;;;;;;5046505;28;20087;-69
2021/12/27 04:28:46;;;;;;;16.27;8.25;;;3.00;90.00;;;;;;5042378;28;20036;-69
2021/12/27 04:31:14;;;;;;;16.08;7.57;;;3.00;90.00;;;;;;5052864;28;20120;-69
2021/12/27 04:33:40;;;;;;;20.40;9.35;;;3.10;90.10;;;;;;5042132;28;20036;-69
2021/12/27 04:36:06;;;;;;;19.45;7.25;;;3.00;90.00;;;;;;5033043;28;20108;-70
2021/12/27 04:38:32;;;;;;;6.80;3.97;;;3.10;90.10;;;;;;5043704;28;20049;-69
2021/12/27 04:40:58;;;;;;;11.13;4.78;;;3.10;90.10;;;;;;5038768;28;20086;-69
2021/12/27 04:43:24;;;;;;;6.53;3.75;;;3.10;90.10;;;;;;5041825;28;20025;-69
2021/12/27 04:45:52;;;;;;;20.63;9.30;;;3.10;90.20;;;;;;5049602;28;20450;-69
2021/12/27 04:48:20;;;;;;;15.07;6.78;;;3.20;90.10;;;;;;5040788;28;20236;-70
2021/12/27 04:50:46;;;;;;;16.73;8.75;;;3.20;90.10;;;;;;5051608;28;20086;-70
2021/12/27 04:53:11;;;;;;;20.85;9.38;;;3.20;90.00;;;;;;5049145;28;20123;-69
2021/12/27 04:55:37;;;;;;;18.25;8.27;;;3.30;90.00;;;;;;5039033;28;20150;-69
2021/12/27 04:58:05;;;;;;;6.75;4.15;;;3.30;89.90;;;;;;5045535;28;20029;-69
2021/12/27 05:00:31;;;;;;;12.88;6.93;;;3.30;90.00;;;;;;5032813;28;20397;-70
2021/12/27 05:02:58;;;;;;;11.15;4.63;;;3.30;90.00;;;;;;5052446;28;20457;-69
2021/12/27 05:05:25;;;;;;;16.52;7.30;;;3.30;90.10;;;;;;5050742;28;20045;-69
2021/12/27 05:07:52;;;;;;;2.80;2.00;;;3.30;90.20;;;;;;5031804;28;20443;-69
2021/12/27 05:10:18;;;;;;;18.27;7.88;;;3.30;90.20;;;;;;5034665;28;20128;-69
2021/12/27 05:12:44;;;;;;;18.70;7.78;;;3.40;90.20;;;;;;5045672;28;20100;-69
2021/12/27 05:15:10;;;;;;;25.80;8.80;;;3.40;90.20;;;;;;5035398;28;20091;-69
2021/12/27 05:17:36;;;;;;;5.07;3.08;;;3.50;90.20;;;;;;5032601;28;20095;-69
2021/12/27 05:20:08;;;;;;;16.38;7.70;;;3.40;90.20;;;;;;5049020;28;20484;-69
2021/12/27 05:22:34;;;;;;;11.68;6.10;;;3.50;90.30;;;;;;5051682;28;20109;-69
2021/12/27 05:25:00;;;;;;;16.38;8.02;;;3.50;90.30;;;;;;5047476;28;20544;-69
2021/12/27 05:27:26;;;;;;;11.20;4.68;;;3.60;90.30;;;;;;5032443;28;20022;-69
2021/12/27 05:29:52;;;;;;;19.17;8.23;;;3.50;90.30;;;;;;5031430;28;20488;-69
2021/12/27 05:32:18;;;;;;;21.10;9.98;;;3.50;90.30;;;;;;5046805;28;20393;-69
2021/12/27 05:34:43;;;;;;;12.85;6.93;;;3.50;90.10;;;;;;5050672;28;20080;-69
2021/12/27 05:37:09;;;;;;;20.17;9.90;;;3.60;90.20;;;;;;5048176;28;20468;-69
2021/12/27 05:39:35;;;;;;;11.02;5.53;;;3.50;90.00;;;;;;5056070;28;20365;-70
2021/12/27 05:42:01;;;;;;;18.52;9.95;;;3.50;90.10;;;;;;5055470;28;20055;-69
2021/12/27 05:44:27;;;;;;;13.73;6.80;;;3.50;90.00;;;;;;5055967;28;20037;-69
2021/12/27 05:46:54;;;;;;;12.80;6.90;;;3.50;90.00;;;;;;5042697;28;20046;-71
2021/12/27 05:49:20;;;;;;;6.13;4.00;;;3.50;90.30;;;;;;5042484;28;20051;-71
2021/12/27 05:51:46;;;;;;;19.33;8.13;;;3.50;90.00;;;;;;5048924;28;20033;-69
2021/12/27 05:54:13;;;;;;;14.13;6.65;;;3.50;90.10;;;;;;5042444;28;20484;-69
2021/12/27 05:56:40;;;;;;;16.67;7.95;;;3.50;90.20;;;;;;5051801;28;20427;-70
2021/12/27 05:59:09;;;;;;;18.60;8.25;;;3.50;90.10;;;;;;5037129;28;20063;-70
2021/12/27 06:01:35;;;;;;;17.10;8.25;;;3.50;90.10;;;;;;5038110;28;20388;-69
2021/12/27 06:04:01;;;;;;;6.40;3.35;;;3.50;90.10;;;;;;5034261;28;20025;-69
2021/12/27 06:06:26;;;;;;;16.45;9.23;;;3.60;90.10;;;;;;5037673;28;20026;-69
2021/12/27 06:08:52;;;;;;;16.50;8.68;;;3.60;90.10;;;;;;5034981;28;20024;-69
2021/12/27 06:11:18;;;;;;;15.60;7.32;;;3.60;90.00;;;;;;5034793;28;20393;-69
2021/12/27 06:13:44;;;;;;;13.27;7.20;;;3.60;90.00;;;;;;5047988;28;20032;-69
2021/12/27 06:16:11;;;;;;;1.90;1.77;;;3.60;90.00;;;;;;5036330;28;20053;-69
2021/12/27 06:18:37;;;;;;;2.20;1.98;;;3.60;90.00;;;;;;5047844;28;20037;-69
2021/12/27 06:21:04;;;;;;;12.82;6.82;;;3.60;90.00;;;;;;5041994;28;20040;-69
2021/12/27 06:23:30;;;;;;;20.70;8.38;;;3.70;90.10;;;;;;5055046;28;20031;-70
2021/12/27 06:25:56;;;;;;;20.67;9.10;;;3.70;90.10;;;;;;5047236;28;20080;-69
2021/12/27 06:28:25;;;;;;;17.83;8.63;;;3.70;90.10;;;;;;5048442;28;20395;-70
2021/12/27 06:30:51;;;;;;;14.70;7.07;;;3.70;90.00;;;;;;5035303;28;20030;-69
2021/12/27 06:33:17;;;;;;;15.02;8.10;;;3.70;90.00;;;;;;5034429;28;20072;-69
2021/12/27 06:35:43;;;;;;;7.78;4.95;;;3.80;90.00;;;;;;5043768;28;20712;-69
2021/12/27 06:38:09;;;;;;;19.30;9.52;;;3.70;90.00;;;;;;5040198;28;20116;-69
2021/12/27 06:40:35;;;;;;;14.38;7.90;;;3.80;90.10;;;;;;5043582;28;20057;-69
2021/12/27 06:43:01;;;;;;;15.40;7.00;;;3.80;90.00;;;;;;5040695;28;20048;-69
2021/12/27 06:45:27;;;;;;;15.40;7.22;;;3.80;90.00;;;;;;5044589;28;20041;-69
2021/12/27 06:47:53;;;;;;;16.67;7.07;;;3.80;90.10;;;;;;5050936;28;20540;-69
2021/12/27 06:50:19;;;;;;;14.18;8.15;;;3.80;90.10;;;;;;5054825;28;20052;-69
2021/12/27 06:52:45;;;;;;;15.48;7.93;;;3.80;90.10;;;;;;5050517;28;20101;-69
2021/12/27 06:55:11;;;;;;;6.68;3.35;;;3.80;90.10;;;;;;5034746;28;20140;-69
2021/12/27 06:57:38;;;;;;;13.95;7.47;;;3.80;90.20;;;;;;5034795;28;20036;-69
2021/12/27 07:00:07;;;;;;;12.23;5.15;;;3.80;90.20;;;;;;5034259;28;20061;-70
2021/12/27 07:02:33;;;;;;;23.23;10.13;;;3.80;90.20;;;;;;5039047;28;20533;-69
2021/12/27 07:04:59;;;;;;;22.42;10.55;;;3.80;90.20;;;;;;5054608;28;20041;-69
2021/12/27 07:07:24;;;;;;;12.00;6.50;;;3.80;90.10;;;;;;5048547;28;20034;-69
2021/12/27 07:09:51;;;;;;;20.10;4.32;;;3.90;90.10;;;;;;5034510;28;20037;-69
2021/12/27 07:12:17;;;;;;;16.83;8.80;;;3.80;90.10;;;;;;5047747;28;20440;-70
2021/12/27 07:14:43;;;;;;;11.18;6.50;;;3.80;90.20;;;;;;5052757;28;20032;-69
2021/12/27 07:17:09;;;;;;;14.07;6.00;;;3.90;90.30;;;;;;5035108;28;20025;-70
2021/12/27 07:19:35;;;;;;;20.73;9.25;;;3.90;90.60;;;;;;5047167;28;20499;-69
2021/12/27 07:22:00;;;;;;;17.92;8.60;;;3.90;90.30;;;;;;5040014;28;20021;-69
2021/12/27 07:24:26;;;;;;;16.77;7.50;;;3.90;90.30;;;;;;5053918;28;20051;-69
2021/12/27 07:26:52;;;;;;;7.32;3.65;;;3.90;90.60;;;;;;5047476;28;20029;-69
2021/12/27 07:29:19;;;;;;;18.80;8.43;;;3.90;90.40;;;;;;5047013;28;20365;-69
2021/12/27 07:31:45;;;;;;;20.95;9.15;;;3.90;90.40;;;;;;5054154;28;20033;-69
2021/12/27 07:34:12;;;;;;;15.45;7.47;;;3.90;90.30;;;;;;5053548;28;20043;-69
2021/12/27 07:36:38;;;;;;;13.73;6.13;;;3.90;90.30;;;;;;5041619;28;20041;-69
2021/12/27 07:39:04;;;;;;;12.27;7.03;;;4.00;90.40;;;;;;5053651;28;20029;-69
2021/12/27 07:41:30;;;;;;;20.15;9.75;;;3.90;90.40;;;;;;5053412;28;20494;-70
2021/12/27 07:43:56;;;;;;;16.23;8.48;;;4.00;90.40;;;;;;5053803;28;20025;-70
2021/12/27 07:46:23;;;;;;;11.75;3.42;;;4.00;90.30;;;;;;5044697;28;20041;-70
2021/12/27 07:48:49;;;;;;;18.20;7.88;;;4.00;90.40;;;;;;5049007;28;20029;-69
2021/12/27 07:51:15;;;;;;;12.43;5.97;;;4.00;90.40;;;;;;5051394;28;20047;-70
2021/12/27 07:53:40;;;;;;;22.77;9.75;;;4.00;90.40;;;;;;5035628;28;20030;-69
2021/12/27 07:56:08;;;;;;;21.77;9.95;;;4.00;90.40;;;;;;5032018;28;20057;-70
2021/12/27 07:58:33;;;;;;;23.75;9.43;;;4.00;90.40;;;;;;5048827;28;20028;-69
2021/12/27 08:00:59;;;;;;;20.73;8.68;;;4.00;90.40;;;;;;5033188;28;20029;-69
2021/12/27 08:03:25;;;;;;;18.52;10.15;;;4.00;90.40;;;;;;5032017;28;20033;-69
2021/12/27 08:05:50;;;;;;;16.63;8.18;;;4.00;90.40;;;;;;5035487;28;20033;-70
2021/12/27 08:08:16;;;;;;;15.65;8.77;;;4.00;90.40;;;;;;5035024;28;20417;-69
2021/12/27 08:10:42;;;;;;;21.33;9.27;;;4.00;90.40;;;;;;5032107;28;20033;-69
2021/12/27 08:13:08;;;;;;;18.52;9.02;;;4.00;90.40;;;;;;5036062;28;20040;-69
2021/12/27 08:15:34;;;;;;;18.92;7.50;;;4.00;90.50;;;;;;5033805;28;20112;-69
2021/12/27 08:17:59;;;;;;;16.33;8.48;;;4.00;90.50;;;;;;5031932;28;20029;-70
2021/12/27 08:20:25;;;;;;;10.25;5.68;;;4.00;90.50;;;;;;5033837;28;20029;-69
2021/12/27 08:22:51;;;;;;;12.40;5.70;;;4.00;90.50;;;;;;5032603;28;20033;-69
2021/12/27 08:25:17;;;;;;;15.25;7.05;;;4.10;90.60;;;;;;5031802;28;20393;-70
2021/12/27 08:27:43;;;;;;;23.98;9.07;;;4.00;90.60;;;;;;5033769;28;20420;-69
2021/12/27 08:30:10;;;;;;;26.48;11.18;;;4.10;90.60;;;;;;5032754;28;20033;-69
2021/12/27 08:32:39;;;;;;;22.98;8.82;;;4.10;90.60;;;;;;5030916;28;20033;-71
2021/12/27 08:35:07;;;;;;;12.40;6.05;;;4.00;90.60;;;;;;5033694;28;20049;-70
2021/12/27 08:37:34;;;;;;;16.00;6.25;;;4.10;90.60;;;;;;5032917;28;20064;-70
2021/12/27 08:39:59;;;;;;;14.98;7.28;;;4.00;90.60;;;;;;5031496;28;20559;-70
2021/12/27 08:42:26;;;;;;;17.25;7.75;;;4.00;90.60;;;;;;5036483;28;20048;-70
2021/12/27 08:44:52;;;;;;;16.95;7.20;;;4.10;90.70;;;;;;5038676;28;20033;-70
2021/12/27 08:47:18;;;;;;;18.80;7.53;;;4.10;90.70;;;;;;5039129;28;20041;-71
2021/12/27 08:49:45;;;;;;;13.40;7.00;;;4.00;90.60;;;;;;5042970;28;20025;-70
2021/12/27 08:52:11;;;;;;;5.57;3.92;;;4.10;90.60;;;;;;5044451;28;20040;-70
2021/12/27 08:54:37;;;;;;;18.40;8.15;;;4.10;90.60;;;;;;5046891;28;20126;-70
2021/12/27 08:57:09;;;;;;;22.55;8.32;;;4.10;90.60;;;;;;5044915;28;20076;-70
2021/12/27 08:59:38;;;;;;;24.52;10.90;;;4.20;90.70;;;;;;5045278;28;20025;-69
2021/12/27 09:02:05;;;;;;;21.63;9.63;;;4.10;90.60;;;;;;5046490;28;20025;-69
2021/12/27 09:04:32;;;;;;;24.10;10.07;;;4.20;90.60;;;;;;5044417;28;20041;-70
2021/12/27 09:06:59;;;;;;;21.63;8.73;;;4.20;90.60;;;;;;5043555;28;20471;-70
2021/12/27 09:09:25;;;;;;;23.42;10.50;;;4.20;90.60;;;;;;5047155;28;20554;-68
2021/12/27 09:11:51;;;;;;;20.02;9.98;;;4.20;90.50;;;;;;5046706;28;20040;-69
2021/12/27 09:14:17;;;;;;;16.92;9.18;;;4.20;90.50;;;;;;5043581;28;20119;-69
2021/12/27 09:16:44;;;;;;;20.20;9.05;;;4.20;90.60;;;;;;5036590;28;20465;-70
2021/12/27 09:19:11;;;;;;;19.13;6.38;;;4.30;90.60;;;;;;5045133;28;20040;-72
2021/12/27 09:21:37;;;;;;;22.40;9.35;;;4.20;90.60;;;;;;5031981;28;20029;-70
2021/12/27 09:24:03;;;;;;;23.63;10.73;;;4.20;90.60;;;;;;5029910;28;20034;-71
2021/12/27 09:26:29;;;;;;;20.48;10.65;;;4.30;90.60;;;;;;5040047;28;20048;-70
2021/12/27 09:28:56;;;;;;;8.55;4.78;;;4.20;90.60;;;;;;5038113;28;20029;-71
2021/12/27 09:31:22;;;;;;;22.02;9.23;;;4.20;90.60;;;;;;5042681;28;20398;-69
2021/12/27 09:33:47;;;;;;;19.75;9.15;;;4.30;90.70;;;;;;5038268;28;20124;-71
2021/12/27 09:36:13;;;;;;;20.70;11.00;;;4.30;90.70;;;;;;5045015;28;20029;-70
2021/12/27 09:38:39;;;;;;;12.68;4.75;;;4.30;90.70;;;;;;5036515;28;20040;-70
2021/12/27 09:41:04;;;;;;;25.98;10.35;;;4.30;90.70;;;;;;5041125;28;20052;-70
2021/12/27 09:43:31;;;;;;;20.80;8.85;;;4.30;90.70;;;;;;5044874;28;20056;-70
2021/12/27 09:45:56;;;;;;;21.13;8.68;;;4.30;90.70;;;;;;5040349;28;20038;-70
2021/12/27 09:48:22;;;;;;;26.98;11.25;;;4.30;90.60;;;;;;5040408;28;20091;-70
2021/12/27 09:50:52;;;;;;;30.58;13.02;;;4.30;90.60;;;;;;5042443;28;20060;-70
2021/12/27 09:53:17;;;;;;;19.75;9.88;;;4.30;90.60;;;;;;5043788;28;20451;-71
2021/12/27 09:55:43;;;;;;;27.40;12.13;;;4.30;90.50;;;;;;5040159;28;20045;-70
2021/12/27 09:58:09;;;;;;;25.70;11.15;;;4.30;90.50;;;;;;5038762;28;20041;-79
2021/12/27 10:00:36;;;;;;;21.70;10.73;;;4.30;90.50;;;;;;5046141;28;20046;-70
2021/12/27 10:03:02;;;;;;;20.98;9.93;;;4.30;90.50;;;;;;5043449;28;20064;-70
2021/12/27 10:05:30;;;;;;;33.35;13.98;;;4.30;90.50;;;;;;5047570;28;20052;-70
2021/12/27 10:07:55;;;;;;;22.73;11.13;;;4.30;90.50;;;;;;5044337;28;20381;-69
2021/12/27 10:10:22;;;;;;;21.42;10.60;;;4.30;90.50;;;;;;5047217;28;20041;-70
2021/12/27 10:12:48;;;;;;;27.45;12.00;;;4.40;90.50;;;;;;5047279;28;20029;-70
2021/12/27 10:15:21;;;;;;;18.60;8.02;;;4.30;90.50;;;;;;5050814;28;20025;-72
2021/12/27 10:17:47;;;;;;;24.27;10.70;;;4.30;90.50;;;;;;5051429;28;20499;-70
2021/12/27 10:20:22;;;;;;;20.92;10.13;;;4.30;90.50;;;;;;5053809;28;20029;-70
2021/12/27 10:22:53;;;;;;;26.48;10.10;;;4.30;90.60;;;;;;5054011;28;20037;-69
2021/12/27 10:25:27;;;;;;;16.75;8.25;;;4.30;90.60;;;;;;5053441;28;20489;-69
2021/12/27 10:27:55;;;;;;;24.80;10.95;;;4.30;90.60;;;;;;5046710;28;20443;-69
2021/12/27 10:30:35;;;;;;;26.77;12.93;;;4.40;90.60;;;;;;5038382;28;20120;-69
2021/12/27 10:33:05;;;;;;;26.52;12.88;;;4.40;90.70;;;;;;5036205;28;20452;-69
2021/12/27 10:35:40;;;;;;;23.65;10.55;;;4.40;90.70;;;;;;5036052;28;20061;-68
2021/12/27 10:38:24;;;;;;;27.70;10.48;;;4.40;90.70;;;;;;5035330;28;20048;-68
2021/12/27 10:41:00;;;;;;;13.35;6.43;;;4.40;90.80;;;;;;5033685;28;20051;-68
2021/12/27 10:43:33;;;;;;;21.52;9.73;;;4.40;90.70;;;;;;5044669;28;20120;-70
2021/12/27 10:46:01;;;;;;;25.73;9.90;;;4.40;90.80;;;;;;5039824;28;20042;-69
2021/12/27 10:48:34;;;;;;;29.50;11.23;;;4.40;90.80;;;;;;5040329;28;20479;-68
2021/12/27 10:51:00;;;;;;;19.30;8.48;;;4.50;90.90;;;;;;5037912;28;20025;-68
2021/12/27 10:53:26;;;;;;;13.70;6.72;;;4.40;90.80;;;;;;5034900;28;20489;-68
2021/12/27 10:55:54;;;;;;;17.45;8.82;;;4.50;90.90;;;;;;5041963;28;20072;-68
2021/12/27 10:58:28;;;;;;;24.30;11.13;;;4.50;90.90;;;;;;5041346;28;20045;-68
2021/12/27 11:01:00;;;;;;;;;;;4.50;90.90;;;;;;5055003;28;20041;-68
2021/12/27 11:03:30;;;;;;;24.42;10.52;;;4.50;90.90;;;;;;5047701;28;19916;-68
2021/12/27 11:05:57;;;;;;;25.83;9.25;;;4.50;90.80;;;;;;5035459;28;20050;-69
2021/12/27 11:08:23;;;;;;;28.20;11.75;;;4.60;90.90;;;;;;5054544;28;20121;-68
2021/12/27 11:10:49;;;;;;;9.90;4.38;;;4.60;91.00;;;;;;5052124;28;20048;-68
2021/12/27 11:13:15;;;;;;;13.57;6.60;;;4.60;91.00;;;;;;5042684;28;20033;-69
2021/12/27 11:15:42;;;;;;;29.30;10.45;;;4.70;91.00;;;;;;5054019;28;20037;-68
2021/12/27 11:18:08;;;;;;;25.35;10.10;;;4.70;91.00;;;;;;5054393;28;20028;-69
2021/12/27 11:20:36;;;;;;;23.52;9.75;;;4.70;91.00;;;;;;5050293;28;20038;-70
2021/12/27 11:23:03;;;;;;;22.52;8.13;;;4.70;91.00;;;;;;5044598;28;20025;-69
2021/12/27 11:25:41;;;;;;;25.50;8.55;;;4.70;91.00;;;;;;5040654;28;20041;-68
2021/12/27 11:28:28;;;;;;;29.65;13.57;;;4.70;91.00;;;;;;5042211;28;20040;-68
2021/12/27 11:30:56;;;;;;;34.08;13.85;;;4.80;91.00;;;;;;5036237;28;20029;-68
2021/12/27 11:33:22;;;;;;;23.65;9.55;;;4.80;91.00;;;;;;5043622;28;20480;-70
2021/12/27 11:35:51;;;;;;;20.20;9.48;;;4.80;91.00;;;;;;5034289;28;20041;-69
2021/12/27 11:38:43;;;;;;;23.35;9.25;;;4.80;91.00;;;;;;5038135;28;20080;-69
2021/12/27 11:41:26;;;;;;;17.38;6.57;;;4.80;91.00;;;;;;5033036;28;20072;-69
2021/12/27 11:43:53;;;;;;;27.77;10.30;;;4.90;91.00;;;;;;5032826;28;20113;-69
2021/12/27 11:46:21;;;;;;;29.33;12.73;;;4.90;91.00;;;;;;5032123;28;20049;-69
2021/12/27 11:48:50;;;;;;;31.15;11.93;;;4.90;91.10;;;;;;5036931;28;20155;-68
2021/12/27 11:51:18;;;;;;;34.15;13.43;;;4.90;91.10;;;;;;5034701;28;20039;-69
2021/12/27 11:53:53;;;;;;;35.53;14.43;;;4.90;91.10;;;;;;5032929;28;20370;-69
2021/12/27 11:56:44;;;;;;;24.20;11.15;;;4.90;91.10;;;;;;5044993;28;20048;-65
2021/12/27 11:59:22;;;;;;;34.80;13.18;;;4.90;91.20;;;;;;5038791;28;20044;-69
2021/12/27 12:01:57;;;;;;;30.88;12.57;;;4.90;91.20;;;;;;5032302;28;20358;-69
2021/12/27 12:04:46;;;;;;;31.05;13.32;;;5.00;91.20;;;;;;5035680;28;20037;-69
2021/12/27 12:07:34;;;;;;;22.13;8.25;;;4.90;91.40;;;;;;5035555;28;20081;-69
2021/12/27 12:10:19;;;;;;;31.92;11.43;;;4.90;91.20;;;;;;5031762;28;20529;-67
2021/12/27 12:13:21;;;;;;;34.53;12.10;;;5.00;91.20;;;;;;5036429;28;20033;-69
2021/12/27 12:16:14;;;;;;;36.50;12.85;;;5.00;91.30;;;;;;5031677;28;20025;-69
2021/12/27 12:18:44;;;;;;;29.48;13.05;;;5.00;91.30;;;;;;5035884;28;20044;-69
2021/12/27 12:21:28;;;;;;;36.40;12.65;;;5.00;91.20;;;;;;5036687;28;20028;-69
2021/12/27 12:24:03;;;;;;;35.03;14.57;;;5.00;91.30;;;;;;5035214;28;20504;-69
2021/12/27 12:26:48;;;;;;;35.50;12.35;;;5.00;91.30;;;;;;5033513;28;20041;-69
2021/12/27 12:29:13;;;;;;;34.33;12.52;;;5.00;91.30;;;;;;5031012;28;20535;-69
2021/12/27 12:31:39;;;;;;;29.98;10.55;;;5.10;91.30;;;;;;5035642;28;20199;-68
2021/12/27 12:34:08;;;;;;;39.47;9.73;;;5.10;91.30;;;;;;5038228;28;20025;-70
2021/12/27 12:36:48;;;;;;;44.72;14.57;;;5.10;91.30;;;;;;5047418;28;20064;-70
2021/12/27 12:39:13;;;;;;;42.42;14.70;;;5.10;91.30;;;;;;5049649;28;20678;-70
2021/12/27 12:41:40;;;;;;;36.22;12.45;;;5.10;91.40;;;;;;5049675;28;20576;-70
2021/12/27 12:44:07;;;;;;;22.38;6.35;;;5.10;91.30;;;;;;5049198;28;20489;-69
2021/12/27 12:46:44;;;;;;;15.82;6.60;;;5.20;91.30;;;;;;5049817;28;20036;-70
2021/12/27 12:49:20;;;;;;;18.27;8.82;;;5.10;91.30;;;;;;5045543;28;20036;-70
2021/12/27 12:51:51;;;;;;;17.65;7.30;;;5.20;91.40;;;;;;5039117;28;20028;-70
2021/12/27 12:54:22;;;;;;;33.17;11.60;;;5.20;91.30;;;;;;5044877;28;20369;-70